createdAt,value
2023-04-29T00:01:42.691Z,100327.81
2023-04-29T00:04:10.276Z,100333.78
2023-04-29T00:06:37.931Z,100321.75
2023-04-29T00:09:05.549Z,100332.81
2023-04-29T00:11:33.159Z,100330.34
2023-04-29T00:14:01.199Z,100332.31
2023-04-29T00:16:28.819Z,100335.09
2023-04-29T00:18:57.740Z,100341.50
2023-04-29T00:21:27.313Z,100327.66
2023-04-29T00:23:54.755Z,100341.84
2023-04-29T00:26:22.201Z,100335.28
2023-04-29T00:28:49.711Z,100337.31
2023-04-29T00:31:17.212Z,100332.59
2023-04-29T00:33:45.778Z,100330.53
2023-04-29T00:36:14.557Z,100325.38
2023-04-29T00:38:42.012Z,100329.88
2023-04-29T00:41:09.585Z,100338.47
2023-04-29T00:43:37.099Z,100334.78
2023-04-29T00:46:04.951Z,100339.50
2023-04-29T00:48:33.029Z,100334.78
2023-04-29T00:51:00.635Z,100334.38
2023-04-29T00:53:29.519Z,100332.59
2023-04-29T00:55:57.196Z,100330.13
2023-04-29T00:58:33.418Z,100321.66
2023-04-29T01:01:01.057Z,100332.34
2023-04-29T01:03:29.679Z,100331.19
2023-04-29T01:06:04.290Z,100336.41
2023-04-29T01:08:39.889Z,100336.06
2023-04-29T01:11:10.750Z,100336.66
2023-04-29T01:13:44.814Z,100336.63
2023-04-29T01:16:14.259Z,100337.22
2023-04-29T01:18:45.493Z,100330.38
2023-04-29T01:21:12.979Z,100334.28
2023-04-29T01:23:41.812Z,100340.66
2023-04-29T01:26:09.310Z,100339.44
2023-04-29T01:28:44.471Z,100339.63
2023-04-29T01:31:16.741Z,100334.06
2023-04-29T01:33:49.534Z,100343.94
2023-04-29T01:36:27.708Z,100343.69
2023-04-29T01:39:03.518Z,100349.00
2023-04-29T01:41:37.119Z,100347.75
2023-04-29T01:44:05.140Z,100337.44
2023-04-29T01:46:33.230Z,100338.16
2023-04-29T01:49:00.864Z,100341.69
2023-04-29T01:51:28.329Z,100335.66
2023-04-29T01:53:57.468Z,100346.31
2023-04-29T01:56:24.951Z,100345.22
2023-04-29T01:58:52.412Z,100348.09
2023-04-29T02:01:19.906Z,100339.50
2023-04-29T02:03:47.493Z,100347.13
2023-04-29T02:06:15.033Z,100353.75
2023-04-29T02:08:42.606Z,100353.22
2023-04-29T02:11:11.399Z,100347.97
2023-04-29T02:13:38.912Z,100350.38
2023-04-29T02:16:10.013Z,100349.69
2023-04-29T02:18:37.711Z,100346.44
2023-04-29T02:21:05.502Z,100356.31
2023-04-29T02:23:33.001Z,100351.75
2023-04-29T02:26:01.559Z,100356.69
2023-04-29T02:28:30.331Z,100357.50
2023-04-29T02:30:57.765Z,100355.91
2023-04-29T02:33:25.317Z,100361.25
2023-04-29T02:35:52.836Z,100361.75
2023-04-29T02:38:20.935Z,100363.38
2023-04-29T02:40:48.741Z,100366.69
2023-04-29T02:43:16.203Z,100363.44
2023-04-29T02:45:45.034Z,100364.47
2023-04-29T02:48:12.602Z,100368.81
2023-04-29T02:50:40.124Z,100363.03
2023-04-29T02:53:07.684Z,100368.16
2023-04-29T02:55:35.156Z,100374.94
2023-04-29T02:58:04.178Z,100370.84
2023-04-29T03:00:31.724Z,100378.19
2023-04-29T03:03:01.614Z,100378.44
2023-04-29T03:05:29.267Z,100366.75
2023-04-29T03:07:56.698Z,100363.50
2023-04-29T03:10:24.163Z,100370.88
2023-04-29T03:12:51.602Z,100367.59
2023-04-29T03:15:19.516Z,100368.84
2023-04-29T03:17:47.150Z,100364.09
2023-04-29T03:20:15.971Z,100369.41
2023-04-29T03:22:43.440Z,100364.53
2023-04-29T03:25:11.562Z,100367.94
2023-04-29T03:27:39.037Z,100366.25
2023-04-29T03:30:08.026Z,100374.25
2023-04-29T03:32:35.532Z,100371.78
2023-04-29T03:35:03.378Z,100361.78
2023-04-29T03:37:32.166Z,100369.31
2023-04-29T03:39:59.610Z,100370.41
2023-04-29T03:42:27.038Z,100367.09
2023-04-29T03:44:54.481Z,100375.13
2023-04-29T03:47:21.970Z,100368.91
2023-04-29T03:49:49.553Z,100380.38
2023-04-29T03:52:17.169Z,100383.13
2023-04-29T03:54:46.277Z,100382.09
2023-04-29T03:57:13.705Z,100393.81
2023-04-29T03:59:41.228Z,100393.88
2023-04-29T04:02:09.224Z,100391.00
2023-04-29T04:04:36.916Z,100390.19
2023-04-29T04:07:04.682Z,100394.47
2023-04-29T04:09:33.406Z,100397.53
2023-04-29T04:12:02.353Z,100395.84
2023-04-29T04:14:30.248Z,100415.56
2023-04-29T04:16:57.691Z,100418.03
2023-04-29T04:19:25.456Z,100421.69
2023-04-29T04:21:52.940Z,100422.53
2023-04-29T04:24:20.405Z,100425.78
2023-04-29T04:26:47.906Z,100430.69
2023-04-29T04:29:16.684Z,100435.44
2023-04-29T04:31:46.804Z,100431.13
2023-04-29T04:34:14.646Z,100437.31
2023-04-29T04:36:42.383Z,100439.69
2023-04-29T04:39:09.975Z,100446.50
2023-04-29T04:41:37.422Z,100447.94
2023-04-29T04:44:05.542Z,100456.78
2023-04-29T04:46:35.035Z,100469.22
2023-04-29T04:49:02.493Z,100466.03
2023-04-29T04:51:29.952Z,100473.03
2023-04-29T04:53:57.394Z,100469.84
2023-04-29T04:56:24.836Z,100472.78
2023-04-29T04:58:52.292Z,100475.50
2023-04-29T05:01:19.786Z,100475.72
2023-04-29T05:03:48.789Z,100471.41
2023-04-29T05:06:16.427Z,100478.88
2023-04-29T05:08:43.890Z,100480.78
2023-04-29T05:11:17.597Z,100484.81
2023-04-29T05:13:45.066Z,100483.25
2023-04-29T05:16:12.553Z,100486.00
2023-04-29T05:18:40.016Z,100497.53
2023-04-29T05:21:08.832Z,100495.78
2023-04-29T05:23:36.274Z,100494.47
2023-04-29T05:26:03.728Z,100495.81
2023-04-29T05:28:31.223Z,100500.84
2023-04-29T05:30:58.810Z,100510.47
2023-04-29T05:33:26.289Z,100512.38
2023-04-29T05:35:53.750Z,100516.06
2023-04-29T05:38:28.684Z,100517.78
2023-04-29T05:40:56.348Z,100528.84
2023-04-29T05:43:23.804Z,100529.94
2023-04-29T05:45:51.360Z,100532.59
2023-04-29T05:48:18.832Z,100541.59
2023-04-29T05:50:48.105Z,100546.16
2023-04-29T05:53:15.567Z,100548.16
2023-04-29T05:55:45.176Z,100545.13
2023-04-29T05:58:13.215Z,100560.34
2023-04-29T06:00:40.793Z,100560.38
2023-04-29T06:03:08.371Z,100575.00
2023-04-29T06:05:36.353Z,100572.94
2023-04-29T06:08:04.818Z,100566.78
2023-04-29T06:10:33.238Z,100574.63
2023-04-29T06:13:02.114Z,100578.78
2023-04-29T06:15:29.638Z,100586.19
2023-04-29T06:17:57.343Z,100597.09
2023-04-29T06:20:25.013Z,100592.34
2023-04-29T06:22:52.463Z,100591.63
2023-04-29T06:25:19.914Z,100593.50
2023-04-29T06:27:47.581Z,100592.19
2023-04-29T06:30:16.449Z,100597.56
2023-04-29T06:32:43.969Z,100603.88
2023-04-29T06:35:11.556Z,100616.47
2023-04-29T06:37:38.998Z,100614.63
2023-04-29T06:40:07.848Z,100621.59
2023-04-29T06:42:36.683Z,100617.94
2023-04-29T06:45:05.254Z,100619.16
2023-04-29T06:47:34.168Z,100622.41
2023-04-29T06:50:01.941Z,100621.38
2023-04-29T06:52:29.656Z,100622.00
2023-04-29T06:54:57.157Z,100623.69
2023-04-29T06:57:24.707Z,100622.47
2023-04-29T06:59:52.547Z,100627.00
2023-04-29T07:02:20.169Z,100626.16
2023-04-29T07:04:50.232Z,100625.16
2023-04-29T07:07:17.873Z,100632.16
2023-04-29T07:09:45.616Z,100644.69
2023-04-29T07:12:13.051Z,100652.09
2023-04-29T07:14:40.854Z,100637.25
2023-04-29T07:17:08.336Z,100647.78
2023-04-29T07:19:35.899Z,100642.41
2023-04-29T07:22:04.956Z,100646.94
2023-04-29T07:24:32.416Z,100652.06
2023-04-29T07:26:59.910Z,100654.97
2023-04-29T07:29:27.355Z,100665.28
2023-04-29T07:31:54.861Z,100670.56
2023-04-29T07:34:22.349Z,100663.97
2023-04-29T07:36:49.786Z,100670.97
2023-04-29T07:39:18.689Z,100663.19
2023-04-29T07:41:46.208Z,100671.59
2023-04-29T07:44:13.762Z,100681.47
2023-04-29T07:46:41.887Z,100681.47
2023-04-29T07:49:10.248Z,100678.94
2023-04-29T07:51:37.711Z,100697.28
2023-04-29T07:54:05.414Z,100693.81
2023-04-29T07:56:34.280Z,100691.91
2023-04-29T07:59:01.788Z,100699.53
2023-04-29T08:01:29.285Z,100708.41
2023-04-29T08:03:56.971Z,100706.72
2023-04-29T08:06:24.722Z,100716.00
2023-04-29T08:08:52.783Z,100711.91
2023-04-29T08:11:21.374Z,100719.41
2023-04-29T08:13:50.170Z,100725.47
2023-04-29T08:16:17.843Z,100733.63
2023-04-29T08:18:45.389Z,100735.50
2023-04-29T08:21:12.852Z,100727.97
2023-04-29T08:23:40.553Z,100735.34
2023-04-29T08:26:08.047Z,100747.22
2023-04-29T08:28:35.488Z,100732.16
2023-04-29T08:31:07.015Z,100741.22
2023-04-29T08:33:34.478Z,100748.47
2023-04-29T08:36:03.762Z,100746.59
2023-04-29T08:38:31.916Z,100754.22
2023-04-29T08:40:59.592Z,100747.88
2023-04-29T08:43:27.831Z,100754.78
2023-04-29T08:45:56.316Z,100755.69
2023-04-29T08:48:26.058Z,100760.28
2023-04-29T08:50:53.604Z,100758.97
2023-04-29T08:53:21.658Z,100763.69
2023-04-29T08:55:49.489Z,100761.19
2023-04-29T08:58:17.546Z,100770.84
2023-04-29T09:00:45.401Z,100768.53
2023-04-29T09:03:18.311Z,100771.81
2023-04-29T09:05:50.304Z,100770.78
2023-04-29T09:08:18.382Z,100774.03
2023-04-29T09:10:45.896Z,100770.00
2023-04-29T09:13:24.386Z,100779.41
2023-04-29T09:15:51.937Z,100776.56
2023-04-29T09:18:42.382Z,100768.94
2023-04-29T09:21:15.911Z,100779.25
2023-04-29T09:23:43.616Z,100779.84
2023-04-29T09:26:11.054Z,100771.81
2023-04-29T09:28:39.772Z,100777.50
2023-04-29T09:31:08.553Z,100785.44
2023-04-29T09:33:50.652Z,100780.97
2023-04-29T09:39:16.471Z,100791.53
2023-04-29T09:41:59.181Z,100796.44
2023-04-29T09:44:29.490Z,100792.69
2023-04-29T09:46:59.545Z,100795.31
2023-04-29T09:49:28.234Z,100799.94
2023-04-29T09:51:59.411Z,100798.28
2023-04-29T09:54:29.416Z,100795.44
2023-04-29T09:56:58.237Z,100795.44
2023-04-29T09:59:26.833Z,100794.16
2023-04-29T10:01:55.911Z,100805.59
2023-04-29T10:04:24.881Z,100804.66
2023-04-29T10:06:53.853Z,100806.34
2023-04-29T10:09:22.854Z,100808.03
2023-04-29T10:11:53.347Z,100801.88
2023-04-29T10:14:22.398Z,100808.56
2023-04-29T10:16:51.780Z,100802.09
2023-04-29T10:19:27.554Z,100807.25
2023-04-29T10:21:56.197Z,100810.69
2023-04-29T10:24:23.722Z,100808.72
2023-04-29T10:26:53.564Z,100812.19
2023-04-29T10:29:23.471Z,100808.34
2023-04-29T10:31:51.757Z,100812.97
2023-04-29T10:34:19.726Z,100808.34
2023-04-29T10:36:48.031Z,100813.59
2023-04-29T10:39:24.338Z,100818.09
2023-04-29T10:41:53.898Z,100803.28
2023-04-29T10:44:21.322Z,100802.56
2023-04-29T10:46:48.847Z,100795.63
2023-04-29T10:49:16.324Z,100797.91
2023-04-29T10:51:45.540Z,100809.47
2023-04-29T10:54:14.731Z,100818.31
2023-04-29T10:56:44.114Z,100815.44
2023-04-29T10:59:14.267Z,100811.50
2023-04-29T11:01:46.795Z,100798.09
2023-04-29T11:04:14.588Z,100808.44
2023-04-29T11:06:45.209Z,100800.13
2023-04-29T11:09:14.971Z,100808.34
2023-04-29T11:12:03.121Z,100811.56
2023-04-29T11:14:34.191Z,100805.63
2023-04-29T11:17:03.455Z,100805.34
2023-04-29T11:19:35.266Z,100792.19
2023-04-29T11:22:11.714Z,100804.16
2023-04-29T11:24:50.419Z,100792.00
2023-04-29T11:27:19.338Z,100800.47
2023-04-29T11:29:48.349Z,100798.81
2023-04-29T11:32:15.877Z,100804.75
2023-04-29T11:34:43.319Z,100797.06
2023-04-29T11:37:11.526Z,100798.69
2023-04-29T11:39:39.008Z,100806.38
2023-04-29T11:42:07.058Z,100805.78
2023-04-29T11:44:35.823Z,100798.22
2023-04-29T11:47:05.210Z,100793.66
2023-04-29T11:49:33.394Z,100803.03
2023-04-29T11:52:01.029Z,100801.59
2023-04-29T11:54:28.722Z,100800.03
2023-04-29T11:56:56.513Z,100790.28
2023-04-29T11:59:24.047Z,100802.75
2023-04-29T12:01:52.015Z,100796.19
2023-04-29T12:04:21.060Z,100797.84
2023-04-29T12:06:52.518Z,100794.06
2023-04-29T12:09:20.378Z,100792.34
2023-04-29T12:11:48.215Z,100786.53
2023-04-29T12:14:15.758Z,100789.47
2023-04-29T12:16:43.516Z,100792.91
2023-04-29T12:19:11.977Z,100789.06
2023-04-29T12:21:49.408Z,100795.44
2023-04-29T12:24:17.478Z,100802.09
2023-04-29T12:26:46.457Z,100792.09
2023-04-29T12:29:14.348Z,100793.19
2023-04-29T12:31:41.985Z,100796.47
2023-04-29T12:34:10.199Z,100792.19
2023-04-29T12:36:38.066Z,100805.31
2023-04-29T12:39:10.763Z,100802.78
2023-04-29T12:41:39.260Z,100800.75
2023-04-29T12:44:07.395Z,100802.78
2023-04-29T12:46:38.878Z,100799.22
2023-04-29T12:49:06.787Z,100798.09
2023-04-29T12:51:34.836Z,100806.16
2023-04-29T12:54:06.187Z,100815.44
2023-04-29T12:56:35.002Z,100802.94
2023-04-29T12:59:09.871Z,100798.06
2023-04-29T13:01:37.696Z,100808.44
2023-04-29T13:04:08.700Z,100807.53
2023-04-29T13:06:39.424Z,100808.09
2023-04-29T13:09:07.688Z,100807.63
2023-04-29T13:11:36.930Z,100814.88
2023-04-29T13:14:05.119Z,100807.09
2023-04-29T13:16:33.123Z,100813.91
2023-04-29T13:19:12.414Z,100815.75
2023-04-29T13:21:48.548Z,100813.44
2023-04-29T13:24:18.204Z,100823.53
2023-04-29T13:26:49.580Z,100819.41
2023-04-29T13:29:18.447Z,100827.50
2023-04-29T13:31:46.035Z,100819.66
2023-04-29T13:34:13.648Z,100819.88
2023-04-29T13:36:41.140Z,100814.72
2023-04-29T13:39:08.871Z,100829.19
2023-04-29T13:41:36.379Z,100827.09
2023-04-29T13:44:11.242Z,100830.63
2023-04-29T13:46:49.105Z,100839.56
2023-04-29T13:49:45.424Z,100837.72
2023-04-29T13:53:00.751Z,100841.31
2023-04-29T13:55:18.542Z,100842.09
2023-04-29T13:58:31.130Z,100846.09
2023-04-29T14:05:28.886Z,100847.97
2023-04-29T14:07:56.483Z,100850.84
2023-04-29T14:10:24.046Z,100850.41
2023-04-29T14:12:51.496Z,100848.78
2023-04-29T14:15:18.965Z,100856.34
2023-04-29T14:17:50.049Z,100856.94
2023-04-29T14:20:17.523Z,100860.25
2023-04-29T14:22:45.234Z,100860.25
2023-04-29T14:25:13.568Z,100860.06
2023-04-29T14:27:41.057Z,100863.16
2023-04-29T14:30:09.661Z,100869.75
2023-04-29T14:32:37.132Z,100869.53
2023-04-29T14:35:06.905Z,100880.50
2023-04-29T14:37:34.345Z,100871.78
2023-04-29T14:40:01.852Z,100871.59
2023-04-29T14:42:29.311Z,100866.63
2023-04-29T14:44:56.856Z,100883.31
2023-04-29T14:47:24.450Z,100886.03
2023-04-29T14:49:51.917Z,100887.91
2023-04-29T14:52:20.687Z,100883.38
2023-04-29T14:54:48.156Z,100882.97
2023-04-29T14:57:15.610Z,100890.84
2023-04-29T14:59:43.070Z,100888.97
2023-04-29T15:02:10.617Z,100892.50
2023-04-29T15:04:39.698Z,100896.00
2023-04-29T15:07:07.298Z,100902.81
2023-04-29T15:09:36.323Z,100894.97
2023-04-29T15:12:04.470Z,100898.28
2023-04-29T15:14:31.946Z,100905.94
2023-04-29T15:16:59.396Z,100910.31
2023-04-29T15:19:26.870Z,100912.75
2023-04-29T15:21:54.405Z,100905.78
2023-04-29T15:24:21.818Z,100909.91
2023-04-29T15:26:51.905Z,100916.53
2023-04-29T15:29:19.348Z,100913.63
2023-04-29T15:31:47.122Z,100913.44
2023-04-29T15:34:14.577Z,100915.72
2023-04-29T15:36:42.818Z,100921.06
2023-04-29T15:39:11.294Z,100921.88
2023-04-29T15:41:38.955Z,100928.50
2023-04-29T15:44:07.810Z,100936.97
2023-04-29T15:46:35.276Z,100944.16
2023-04-29T15:49:04.420Z,100930.34
2023-04-29T15:51:32.392Z,100944.13
2023-04-29T15:54:00.018Z,100936.72
2023-04-29T15:56:27.461Z,100937.31
2023-04-29T15:58:54.910Z,100940.78
2023-04-29T16:01:23.800Z,100931.31
2023-04-29T16:03:51.401Z,100951.09
2023-04-29T16:06:18.972Z,100950.03
2023-04-29T16:08:46.901Z,100941.38
2023-04-29T16:11:14.359Z,100942.38
2023-04-29T16:13:41.782Z,100958.06
2023-04-29T16:16:09.382Z,100950.56
2023-04-29T16:18:39.603Z,100959.84
2023-04-29T16:21:07.098Z,100968.66
2023-04-29T16:23:34.659Z,100961.66
2023-04-29T16:26:02.321Z,100963.94
2023-04-29T16:28:29.784Z,100962.88
2023-04-29T16:30:57.228Z,100969.88
2023-04-29T16:33:24.691Z,100969.72
2023-04-29T16:35:53.886Z,100976.97
2023-04-29T16:38:21.585Z,100968.66
2023-04-29T16:40:50.643Z,100969.25
2023-04-29T16:43:19.047Z,100976.88
2023-04-29T16:45:46.496Z,100972.56
2023-04-29T16:48:13.970Z,100974.78
2023-04-29T16:50:41.394Z,100976.16
2023-04-29T16:53:10.145Z,100970.81
2023-04-29T16:55:37.593Z,100974.09
2023-04-29T16:58:05.367Z,100974.41
2023-04-29T17:00:32.939Z,100977.72
2023-04-29T17:03:00.724Z,100973.81
2023-04-29T17:05:28.226Z,100978.50
2023-04-29T17:07:55.988Z,100979.16
2023-04-29T17:10:25.180Z,100981.78
2023-04-29T17:12:53.071Z,100981.44
2023-04-29T17:15:20.554Z,100986.53
2023-04-29T17:17:48.049Z,100984.34
2023-04-29T17:20:15.540Z,100987.84
2023-04-29T17:22:43.008Z,100983.72
2023-04-29T17:25:10.864Z,100994.25
2023-04-29T17:27:39.628Z,100987.25
2023-04-29T17:30:08.639Z,100995.63
2023-04-29T17:32:39.095Z,100993.41
2023-04-29T17:35:07.900Z,100995.41
2023-04-29T17:37:36.098Z,100997.50
2023-04-29T17:40:04.296Z,101003.84
2023-04-29T17:42:31.863Z,101005.88
2023-04-29T17:45:00.703Z,101007.47
2023-04-29T17:47:28.209Z,101002.50
2023-04-29T17:49:56.325Z,101000.84
2023-04-29T17:52:24.770Z,101006.44
2023-04-29T17:54:52.206Z,101002.53
2023-04-29T17:57:19.674Z,101001.53
2023-04-29T17:59:47.522Z,101005.59
2023-04-29T18:02:16.356Z,101011.75
2023-04-29T18:04:43.896Z,101018.56
2023-04-29T18:07:11.385Z,101019.34
2023-04-29T18:09:39.237Z,101018.09
2023-04-29T18:12:06.820Z,101030.81
2023-04-29T18:14:34.283Z,101024.16
2023-04-29T18:17:01.792Z,101034.91
2023-04-29T18:19:30.618Z,101034.16
2023-04-29T18:21:59.129Z,101025.84
2023-04-29T18:24:27.734Z,101035.78
2023-04-29T18:26:56.670Z,101038.19
2023-04-29T18:29:24.252Z,101033.13
2023-04-29T18:31:54.488Z,101033.63
2023-04-29T18:34:22.063Z,101040.38
2023-04-29T18:36:51.205Z,101034.66
2023-04-29T18:39:18.688Z,101034.47
2023-04-29T18:41:46.186Z,101030.34
2023-04-29T18:44:13.732Z,101037.53
2023-04-29T18:46:41.534Z,101038.75
2023-04-29T18:49:11.696Z,101036.09
2023-04-29T18:51:40.386Z,101040.25
2023-04-29T18:54:09.459Z,101045.53
2023-04-29T18:56:38.914Z,101036.50
2023-04-29T18:59:08.715Z,101053.00
2023-04-29T19:01:36.213Z,101043.44
2023-04-29T19:04:05.889Z,101059.13
2023-04-29T19:06:34.571Z,101065.50
2023-04-29T19:09:02.094Z,101048.41
2023-04-29T19:11:31.510Z,101054.53
2023-04-29T19:13:59.073Z,101064.84
2023-04-29T19:16:26.687Z,101064.84
2023-04-29T19:18:54.194Z,101072.88
2023-04-29T19:21:21.849Z,101078.22
2023-04-29T19:23:49.329Z,101071.81
2023-04-29T19:26:16.856Z,101087.38
2023-04-29T19:28:45.679Z,101096.91
2023-04-29T19:31:13.226Z,101091.97
2023-04-29T19:33:40.703Z,101088.03
2023-04-29T19:36:08.336Z,101100.94
2023-04-29T19:38:36.350Z,101097.09
2023-04-29T19:41:03.875Z,101094.16
2023-04-29T19:43:31.732Z,101097.28
2023-04-29T19:46:00.532Z,101096.91
2023-04-29T19:48:28.188Z,101097.66
2023-04-29T19:50:59.404Z,101101.28
2023-04-29T19:53:26.976Z,101103.44
2023-04-29T19:55:54.892Z,101104.47
2023-04-29T19:58:22.419Z,101107.13
2023-04-29T20:00:50.025Z,101108.78
2023-04-29T20:03:18.965Z,101108.41
2023-04-29T20:05:47.280Z,101107.53
2023-04-29T20:08:14.785Z,101105.31
2023-04-29T20:10:42.323Z,101107.81
2023-04-29T20:13:09.793Z,101111.31
2023-04-29T20:15:37.303Z,101114.38
2023-04-29T20:18:05.018Z,101121.28
2023-04-29T20:20:33.892Z,101118.31
2023-04-29T20:23:01.445Z,101112.31
2023-04-29T20:25:28.971Z,101119.09
2023-04-29T20:27:56.764Z,101109.44
2023-04-29T20:30:25.764Z,101112.78
2023-04-29T20:32:53.294Z,101118.22
2023-04-29T20:35:21.573Z,101114.88
2023-04-29T20:37:50.398Z,101115.63
2023-04-29T20:40:18.320Z,101117.47
2023-04-29T20:42:45.834Z,101111.94
2023-04-29T20:45:13.489Z,101120.25
2023-04-29T20:47:41.079Z,101120.56
2023-04-29T20:50:09.379Z,101124.28
2023-04-29T20:52:37.939Z,101121.53
2023-04-29T20:55:07.272Z,101121.16
2023-04-29T20:57:34.727Z,101119.44
2023-04-29T21:00:02.186Z,101120.63
2023-04-29T21:02:29.699Z,101117.00
2023-04-29T21:04:57.348Z,101124.31
2023-04-29T21:07:24.830Z,101129.41
2023-04-29T21:09:52.454Z,101130.22
2023-04-29T21:12:21.462Z,101130.41
2023-04-29T21:14:48.999Z,101134.56
2023-04-29T21:17:16.526Z,101130.22
2023-04-29T21:19:44.186Z,101129.66
2023-04-29T21:22:11.696Z,101127.19
2023-04-29T21:24:39.135Z,101129.41
2023-04-29T21:27:06.817Z,101130.78
2023-04-29T21:29:40.483Z,101134.13
2023-04-29T21:32:08.425Z,101134.88
2023-04-29T21:34:36.019Z,101137.25
2023-04-29T21:37:03.501Z,101133.31
2023-04-29T21:39:31.991Z,101129.78
2023-04-29T21:42:00.593Z,101123.91
2023-04-29T21:44:28.052Z,101136.78
2023-04-29T21:46:59.559Z,101136.97
2023-04-29T21:49:28.337Z,101139.19
2023-04-29T21:51:56.086Z,101147.31
2023-04-29T21:54:23.531Z,101142.41
2023-04-29T21:56:50.965Z,101141.50
2023-04-29T21:59:18.424Z,101144.44
2023-04-29T22:02:00.019Z,101150.72
2023-04-29T22:04:29.223Z,101146.19
2023-04-29T22:06:57.170Z,101145.38
2023-04-29T22:09:24.618Z,101141.13
2023-04-29T22:11:52.053Z,101146.66
2023-04-29T22:14:19.495Z,101144.47
2023-04-29T22:16:47.010Z,101147.97
2023-04-29T22:19:14.526Z,101150.06
2023-04-29T22:21:43.391Z,101154.03
2023-04-29T22:24:10.969Z,101152.19
2023-04-29T22:26:38.422Z,101151.53
2023-04-29T22:29:05.899Z,101161.03
2023-04-29T22:31:33.359Z,101154.56
2023-04-29T22:34:00.831Z,101158.38
2023-04-29T22:36:28.328Z,101165.09
2023-04-29T22:38:57.148Z,101168.50
2023-04-29T22:41:24.598Z,101163.25
2023-04-29T22:43:56.923Z,101169.53
2023-04-29T22:46:24.652Z,101168.59
2023-04-29T22:48:52.176Z,101166.75
2023-04-29T22:51:21.713Z,101169.16
2023-04-29T22:53:49.303Z,101168.78
2023-04-29T22:56:18.172Z,101170.25
2023-04-29T22:58:45.712Z,101165.28
2023-04-29T23:01:13.288Z,101172.75
2023-04-29T23:03:41.028Z,101165.94
2023-04-29T23:06:08.537Z,101163.34
2023-04-29T23:08:36.163Z,101163.09
2023-04-29T23:11:03.661Z,101168.06
2023-04-29T23:13:32.877Z,101168.50
2023-04-29T23:16:01.094Z,101166.19
2023-04-29T23:18:28.670Z,101164.75
2023-04-29T23:20:56.863Z,101162.72
2023-04-29T23:23:24.362Z,101164.44
2023-04-29T23:25:51.897Z,101169.16
2023-04-29T23:28:19.314Z,101173.50
2023-04-29T23:30:48.958Z,101180.03
2023-04-29T23:33:16.397Z,101179.00
2023-04-29T23:35:49.539Z,101179.13
2023-04-29T23:38:17.160Z,101179.50
2023-04-29T23:40:44.744Z,101175.91
2023-04-29T23:43:12.194Z,101177.63
2023-04-29T23:45:39.706Z,101175.25
2023-04-29T23:48:09.351Z,101174.31
2023-04-29T23:50:36.998Z,101173.03
2023-04-29T23:53:04.564Z,101167.88
2023-04-29T23:55:32.253Z,101170.06
2023-04-29T23:57:59.855Z,101173.59
